createdAt,value
2022-08-05T00:00:52.113Z,17.05
2022-08-05T00:01:53.884Z,11.52
2022-08-05T00:02:55.829Z,14.27
2022-08-05T00:03:57.738Z,10.13
2022-08-05T00:04:59.502Z,11.68
2022-08-05T00:06:05.003Z,11.27
2022-08-05T00:07:59.440Z,12.98
2022-08-05T00:08:45.450Z,12.27
2022-08-05T00:09:49.222Z,11.63
2022-08-05T00:10:50.919Z,13.45
2022-08-05T00:11:55.766Z,11.57
2022-08-05T00:12:57.929Z,12.48
2022-08-05T00:13:59.741Z,15.70
2022-08-05T00:15:14.002Z,12.57
2022-08-05T00:16:35.620Z,13.98
2022-08-05T00:17:38.471Z,14.05
2022-08-05T00:18:46.017Z,12.38
2022-08-05T00:20:02.360Z,14.43
2022-08-05T00:21:06.511Z,13.15
2022-08-05T00:22:11.273Z,13.57
2022-08-05T00:23:13.428Z,12.43
2022-08-05T00:24:16.084Z,12.82
2022-08-05T00:25:21.080Z,14.27
2022-08-05T00:26:22.760Z,15.77
2022-08-05T00:27:28.564Z,12.65
2022-08-05T00:28:38.750Z,12.70
2022-08-05T00:29:42.354Z,14.00
2022-08-05T00:30:44.790Z,11.95
2022-08-05T00:32:12.703Z,14.45
2022-08-05T00:34:53.548Z,13.65
2022-08-05T00:35:03.791Z,11.95
2022-08-05T00:36:16.656Z,11.50
2022-08-05T00:37:35.661Z,12.65
2022-08-05T00:38:50.365Z,12.80
2022-08-05T00:39:58.732Z,11.98
2022-08-05T00:41:01.022Z,11.70
2022-08-05T00:42:02.928Z,13.10
2022-08-05T00:43:07.656Z,13.00
2022-08-05T00:44:09.499Z,12.18
2022-08-05T00:45:13.582Z,11.57
2022-08-05T00:46:15.354Z,13.80
2022-08-05T00:47:17.664Z,13.30
2022-08-05T00:48:31.502Z,14.15
2022-08-05T00:49:50.979Z,10.40
2022-08-05T00:50:53.664Z,13.55
2022-08-05T00:51:55.331Z,12.73
2022-08-05T00:52:57.014Z,12.30
2022-08-05T00:54:02.255Z,12.60
2022-08-05T00:55:05.464Z,9.85
2022-08-05T00:56:08.143Z,15.15
2022-08-05T00:57:09.967Z,12.13
2022-08-05T00:58:13.299Z,11.90
2022-08-05T00:59:15.006Z,11.85
2022-08-05T01:00:17.082Z,13.63
2022-08-05T01:01:24.926Z,10.77
2022-08-05T01:02:43.298Z,11.23
2022-08-05T01:03:49.917Z,11.98
2022-08-05T01:04:51.864Z,11.55
2022-08-05T01:05:54.650Z,10.27
2022-08-05T01:06:56.767Z,13.32
2022-08-05T01:08:40.291Z,11.38
2022-08-05T01:09:20.468Z,10.02
2022-08-05T01:10:30.244Z,10.88
2022-08-05T01:11:37.441Z,12.15
2022-08-05T01:13:05.294Z,9.05
2022-08-05T01:14:28.075Z,10.15
2022-08-05T01:15:39.044Z,8.90
2022-08-05T01:16:56.876Z,8.75
2022-08-05T01:18:04.676Z,9.32
2022-08-05T01:19:36.684Z,9.05
2022-08-05T01:21:02.708Z,8.05
2022-08-05T01:22:27.911Z,8.85
2022-08-05T01:23:56.306Z,8.45
2022-08-05T01:25:41.050Z,6.57
2022-08-05T01:27:19.142Z,6.82
2022-08-05T01:28:36.109Z,7.05
2022-08-05T01:29:43.114Z,7.45
2022-08-05T01:30:55.190Z,8.02
2022-08-05T01:32:02.597Z,7.53
2022-08-05T01:33:09.592Z,8.65
2022-08-05T01:34:20.532Z,8.40
2022-08-05T01:35:51.577Z,6.43
2022-08-05T01:37:00.507Z,7.43
2022-08-05T01:38:04.230Z,6.68
2022-08-05T01:39:05.950Z,8.15
2022-08-05T01:40:12.434Z,6.38
2022-08-05T01:41:17.027Z,6.20
2022-08-05T01:42:25.369Z,6.30
2022-08-05T01:43:29.662Z,6.82
2022-08-05T01:44:35.224Z,8.10
2022-08-05T01:45:43.158Z,6.63
2022-08-05T01:46:46.261Z,7.05
2022-08-05T01:47:54.453Z,6.60
2022-08-05T01:49:00.658Z,7.53
2022-08-05T01:50:36.142Z,8.73
2022-08-05T01:51:39.590Z,6.90
2022-08-05T01:52:43.751Z,7.18
2022-08-05T01:53:57.643Z,7.15
2022-08-05T01:55:05.688Z,6.35
2022-08-05T01:56:11.721Z,6.55
2022-08-05T01:58:11.543Z,7.07
2022-08-05T01:58:45.256Z,8.20
2022-08-05T01:59:49.371Z,6.13
2022-08-05T02:00:54.098Z,8.55
2022-08-05T02:01:59.902Z,6.90
2022-08-05T02:03:07.577Z,8.43
2022-08-05T02:04:28.813Z,7.00
2022-08-05T02:05:35.945Z,7.22
2022-08-05T02:06:39.428Z,7.75
2022-08-05T02:07:47.255Z,6.30
2022-08-05T02:09:02.473Z,6.82
2022-08-05T02:10:05.545Z,7.68
2022-08-05T02:11:12.563Z,6.68
2022-08-05T02:12:40.676Z,6.45
2022-08-05T02:14:17.955Z,6.60
2022-08-05T02:15:33.281Z,7.85
2022-08-05T02:16:52.181Z,6.68
2022-08-05T02:18:31.767Z,7.50
2022-08-05T02:19:27.891Z,5.28
2022-08-05T02:20:39.115Z,6.70
2022-08-05T02:21:49.247Z,7.93
2022-08-05T02:23:00.975Z,6.97
2022-08-05T02:24:08.158Z,7.95
2022-08-05T02:25:15.785Z,7.70
2022-08-05T02:26:23.301Z,7.20
2022-08-05T02:27:58.070Z,6.93
2022-08-05T02:28:54.659Z,6.28
2022-08-05T02:30:00.097Z,7.57
2022-08-05T02:31:16.696Z,7.47
2022-08-05T02:32:29.438Z,7.10
2022-08-05T02:33:38.447Z,7.28
2022-08-05T02:34:42.165Z,6.45
2022-08-05T02:35:55.908Z,7.75
2022-08-05T02:37:04.416Z,7.13
2022-08-05T02:38:09.447Z,6.10
2022-08-05T02:39:13.055Z,5.88
2022-08-05T02:40:17.227Z,5.43
2022-08-05T02:41:20.859Z,6.82
2022-08-05T02:42:27.358Z,6.72
2022-08-05T02:43:32.456Z,7.53
2022-08-05T02:44:39.638Z,6.53
2022-08-05T02:45:52.412Z,6.75
2022-08-05T02:47:00.156Z,5.72
2022-08-05T02:48:11.688Z,6.72
2022-08-05T02:49:18.019Z,8.85
2022-08-05T02:50:25.524Z,6.40
2022-08-05T02:51:28.283Z,6.07
2022-08-05T02:52:50.850Z,6.65
2022-08-05T02:53:54.905Z,6.20
2022-08-05T02:54:57.687Z,8.00
2022-08-05T02:56:02.237Z,6.95
2022-08-05T02:58:10.466Z,7.85
2022-08-05T02:58:36.299Z,7.28
2022-08-05T02:59:50.636Z,6.70
2022-08-05T03:00:56.565Z,6.13
2022-08-05T03:02:00.783Z,7.10
2022-08-05T03:03:10.282Z,6.47
2022-08-05T03:04:14.579Z,6.53
2022-08-05T03:05:21.632Z,6.63
2022-08-05T03:06:56.561Z,6.43
2022-08-05T03:08:08.526Z,7.13
2022-08-05T03:09:15.729Z,7.00
2022-08-05T03:10:24.638Z,6.78
2022-08-05T03:11:55.263Z,7.85
2022-08-05T03:12:51.725Z,6.93
2022-08-05T03:14:03.362Z,8.10
2022-08-05T03:15:09.205Z,7.15
2022-08-05T03:16:11.149Z,6.20
2022-08-05T03:17:17.497Z,6.82
2022-08-05T03:18:29.762Z,6.72
2022-08-05T03:19:33.941Z,7.50
2022-08-05T03:20:36.540Z,6.65
2022-08-05T03:21:41.303Z,8.85
2022-08-05T03:22:50.612Z,6.78
2022-08-05T03:23:52.872Z,8.65
2022-08-05T03:24:55.712Z,6.60
2022-08-05T03:26:32.041Z,6.40
2022-08-05T03:27:39.294Z,7.60
2022-08-05T03:28:48.897Z,7.25
2022-08-05T03:30:07.416Z,7.05
2022-08-05T03:31:11.515Z,7.63
2022-08-05T03:32:33.413Z,6.47
2022-08-05T03:33:51.224Z,7.13
2022-08-05T03:34:54.626Z,8.27
2022-08-05T03:35:58.358Z,7.75
2022-08-05T03:37:00.843Z,7.85
2022-08-05T03:38:03.960Z,6.13
2022-08-05T03:39:12.989Z,6.95
2022-08-05T03:40:24.381Z,6.45
2022-08-05T03:41:38.603Z,7.70
2022-08-05T03:42:52.063Z,7.53
2022-08-05T03:44:08.272Z,6.53
2022-08-05T03:45:22.551Z,7.85
2022-08-05T03:46:26.765Z,8.05
2022-08-05T03:48:58.610Z,6.45
2022-08-05T03:50:00.374Z,7.80
2022-08-05T03:52:37.213Z,6.28
2022-08-05T03:54:59.245Z,6.85
2022-08-05T03:55:07.010Z,7.47
2022-08-05T03:56:10.395Z,7.07
2022-08-05T03:57:16.382Z,7.70
2022-08-05T03:58:37.910Z,6.72
2022-08-05T03:59:54.703Z,6.15
2022-08-05T04:00:59.889Z,5.93
2022-08-05T04:02:03.605Z,7.00
2022-08-05T04:03:06.589Z,7.25
2022-08-05T04:04:10.993Z,6.95
2022-08-05T04:05:13.489Z,6.80
2022-08-05T04:06:17.605Z,7.97
2022-08-05T04:07:23.775Z,6.60
2022-08-05T04:08:30.351Z,7.80
2022-08-05T04:09:38.475Z,8.15
2022-08-05T04:10:55.569Z,7.85
2022-08-05T04:11:57.632Z,7.28
2022-08-05T04:13:00.270Z,6.35
2022-08-05T04:14:05.327Z,7.78
2022-08-05T04:15:07.819Z,5.80
2022-08-05T04:16:10.305Z,6.97
2022-08-05T04:17:16.840Z,7.28
2022-08-05T04:18:20.535Z,7.38
2022-08-05T04:19:24.370Z,6.90
2022-08-05T04:20:26.018Z,6.28
2022-08-05T04:22:08.560Z,7.78
2022-08-05T04:22:50.558Z,6.25
2022-08-05T04:24:05.758Z,6.43
2022-08-05T04:25:09.157Z,7.53
2022-08-05T04:26:14.618Z,7.13
2022-08-05T04:27:19.236Z,6.57
2022-08-05T04:28:31.010Z,7.35
2022-08-05T04:29:33.764Z,7.80
2022-08-05T04:30:36.014Z,6.82
2022-08-05T04:31:38.681Z,7.53
2022-08-05T04:32:41.366Z,8.00
2022-08-05T04:34:18.713Z,6.60
2022-08-05T04:35:06.491Z,7.47
2022-08-05T04:36:16.155Z,8.23
2022-08-05T04:38:00.898Z,6.05
2022-08-05T04:38:55.681Z,7.85
2022-08-05T04:39:59.519Z,7.43
2022-08-05T04:41:01.195Z,6.38
2022-08-05T04:42:05.697Z,7.32
2022-08-05T04:43:10.946Z,8.25
2022-08-05T04:44:29.044Z,7.00
2022-08-05T04:45:48.966Z,6.72
2022-08-05T04:46:54.028Z,7.38
2022-08-05T04:48:10.332Z,11.10
2022-08-05T04:49:24.802Z,10.45
2022-08-05T04:51:02.795Z,5.80
2022-08-05T04:52:09.019Z,10.00
2022-08-05T04:53:12.556Z,8.95
2022-08-05T04:54:15.706Z,8.38
2022-08-05T04:55:17.423Z,7.80
2022-08-05T04:56:39.493Z,7.10
2022-08-05T04:57:47.678Z,7.95
2022-08-05T04:58:53.597Z,11.75
2022-08-05T04:59:55.250Z,9.35
2022-08-05T05:00:56.964Z,7.43
2022-08-05T05:02:06.744Z,7.22
2022-08-05T05:03:20.499Z,7.18
2022-08-05T05:04:22.255Z,8.00
2022-08-05T05:05:28.420Z,8.65
2022-08-05T05:06:40.040Z,9.07
2022-08-05T05:07:52.868Z,7.65
2022-08-05T05:09:00.669Z,8.88
2022-08-05T05:10:07.313Z,7.90
2022-08-05T05:11:09.221Z,9.68
2022-08-05T05:12:12.203Z,10.13
2022-08-05T05:13:16.285Z,8.80
2022-08-05T05:14:19.153Z,8.68
2022-08-05T05:15:56.632Z,9.93
2022-08-05T05:16:55.081Z,9.10
2022-08-05T05:17:57.880Z,9.63
2022-08-05T05:19:18.777Z,9.75
2022-08-05T05:20:21.265Z,9.30
2022-08-05T05:21:29.843Z,9.50
2022-08-05T05:22:35.393Z,8.80
2022-08-05T05:24:04.101Z,8.48
2022-08-05T05:25:16.611Z,9.07
2022-08-05T05:26:19.316Z,8.60
2022-08-05T05:27:21.286Z,9.98
2022-08-05T05:28:24.083Z,8.45
2022-08-05T05:30:03.571Z,10.80
2022-08-05T05:30:49.707Z,7.47
2022-08-05T05:31:51.730Z,7.95
2022-08-05T05:32:54.693Z,9.82
2022-08-05T05:33:59.262Z,8.85
2022-08-05T05:35:03.593Z,11.43
2022-08-05T05:36:08.028Z,9.55
2022-08-05T05:37:15.166Z,9.90
2022-08-05T05:38:22.775Z,9.93
2022-08-05T05:39:34.459Z,10.40
2022-08-05T05:40:37.924Z,9.65
2022-08-05T05:41:45.407Z,9.38
2022-08-05T05:42:56.331Z,9.35
2022-08-05T05:44:00.433Z,9.95
2022-08-05T05:45:03.021Z,10.48
2022-08-05T05:46:05.235Z,10.65
2022-08-05T05:47:21.799Z,9.32
2022-08-05T05:48:27.354Z,10.18
2022-08-05T05:49:29.532Z,8.90
2022-08-05T05:50:31.381Z,8.82
2022-08-05T05:51:49.562Z,9.02
2022-08-05T05:52:52.374Z,10.10
2022-08-05T05:53:58.882Z,7.88
2022-08-05T05:55:02.213Z,10.18
2022-08-05T05:56:09.596Z,9.38
2022-08-05T05:57:13.911Z,9.35
2022-08-05T05:58:21.045Z,9.05
2022-08-05T05:59:33.206Z,11.50
2022-08-05T06:00:42.138Z,10.32
2022-08-05T06:01:57.218Z,10.40
2022-08-05T06:03:01.415Z,10.07
2022-08-05T06:04:03.827Z,9.27
2022-08-05T06:05:10.193Z,11.52
2022-08-05T06:06:18.036Z,9.20
2022-08-05T06:07:22.451Z,10.85
2022-08-05T06:08:31.645Z,9.27
2022-08-05T06:09:51.343Z,9.40
2022-08-05T06:10:56.380Z,7.45
2022-08-05T06:11:59.986Z,9.80
2022-08-05T06:13:04.976Z,8.60
2022-08-05T06:14:07.746Z,9.77
2022-08-05T06:15:16.429Z,9.73
2022-08-05T06:16:29.108Z,9.52
2022-08-05T06:17:52.675Z,9.23
2022-08-05T06:18:55.417Z,9.48
2022-08-05T06:20:02.408Z,8.70
2022-08-05T06:21:04.907Z,8.18
2022-08-05T06:22:10.051Z,8.38
2022-08-05T06:23:12.178Z,8.52
2022-08-05T06:24:14.796Z,9.32
2022-08-05T06:25:59.142Z,10.40
2022-08-05T06:26:38.247Z,9.45
2022-08-05T06:28:11.644Z,9.00
2022-08-05T06:29:03.478Z,9.68
2022-08-05T06:30:19.856Z,8.45
2022-08-05T06:31:22.790Z,8.23
2022-08-05T06:32:33.758Z,10.45
2022-08-05T06:34:07.817Z,9.00
2022-08-05T06:35:05.806Z,7.85
2022-08-05T06:36:17.021Z,8.68
2022-08-05T06:37:52.276Z,9.30
2022-08-05T06:38:40.433Z,10.18
2022-08-05T06:39:48.824Z,8.70
2022-08-05T06:40:54.425Z,8.77
2022-08-05T06:41:58.862Z,9.65
2022-08-05T06:43:00.801Z,8.27
2022-08-05T06:44:02.567Z,9.90
2022-08-05T06:45:08.297Z,7.72
2022-08-05T06:46:10.717Z,8.68
2022-08-05T06:48:11.341Z,7.13
2022-08-05T06:48:54.534Z,9.20
2022-08-05T06:50:01.385Z,8.38
2022-08-05T06:51:09.558Z,8.05
2022-08-05T06:52:37.259Z,7.88
2022-08-05T06:53:33.597Z,7.43
2022-08-05T06:54:41.125Z,7.30
2022-08-05T06:55:42.880Z,6.97
2022-08-05T06:56:55.163Z,8.77
2022-08-05T06:58:19.809Z,6.55
2022-08-05T06:59:30.657Z,7.63
2022-08-05T07:00:41.142Z,7.72
2022-08-05T07:01:43.085Z,8.35
2022-08-05T07:02:48.055Z,8.30
2022-08-05T07:03:55.917Z,6.22
2022-08-05T07:04:57.693Z,6.88
2022-08-05T07:06:06.196Z,7.30
2022-08-05T07:07:16.310Z,8.43
2022-08-05T07:08:27.801Z,8.65
2022-08-05T07:09:32.351Z,8.57
2022-08-05T07:10:52.900Z,9.50
2022-08-05T07:11:56.329Z,7.78
2022-08-05T07:13:56.751Z,11.65
2022-08-05T07:15:01.698Z,8.25
2022-08-05T07:18:00.539Z,8.52
2022-08-05T07:18:02.424Z,9.32
2022-08-05T07:19:07.329Z,9.00
2022-08-05T07:22:00.164Z,9.15
2022-08-05T07:22:53.081Z,8.25
2022-08-05T07:23:54.789Z,7.72
2022-08-05T07:24:58.410Z,8.07
2022-08-05T07:26:00.819Z,8.27
2022-08-05T07:27:03.898Z,10.20
2022-08-05T07:28:19.817Z,8.90
2022-08-05T07:29:25.321Z,7.95
2022-08-05T07:30:43.302Z,9.40
2022-08-05T07:31:54.523Z,8.60
2022-08-05T07:32:57.484Z,7.75
2022-08-05T07:33:59.836Z,6.40
2022-08-05T07:35:01.650Z,9.57
2022-08-05T07:36:23.505Z,7.15
2022-08-05T07:37:29.070Z,8.90
2022-08-05T07:38:43.094Z,8.30
2022-08-05T07:40:04.745Z,6.80
2022-08-05T07:42:09.441Z,7.75
2022-08-05T07:42:34.032Z,9.18
2022-08-05T07:43:38.322Z,8.77
2022-08-05T07:44:39.964Z,8.82
2022-08-05T07:45:56.968Z,8.10
2022-08-05T07:46:59.562Z,6.78
2022-08-05T07:48:02.783Z,6.78
2022-08-05T07:49:06.169Z,8.70
2022-08-05T07:50:10.205Z,6.50
2022-08-05T07:51:23.474Z,9.85
2022-08-05T07:52:39.073Z,6.95
2022-08-05T07:53:50.291Z,6.97
2022-08-05T07:54:53.045Z,6.93
2022-08-05T07:56:05.670Z,7.63
2022-08-05T07:57:17.860Z,8.50
2022-08-05T07:58:54.851Z,7.55
2022-08-05T07:59:53.471Z,7.80
2022-08-05T08:00:55.646Z,7.78
2022-08-05T08:01:57.626Z,7.75
2022-08-05T08:03:13.811Z,6.80
2022-08-05T08:04:17.217Z,8.25
2022-08-05T08:05:39.486Z,6.75
2022-08-05T08:06:41.853Z,6.70
2022-08-05T08:07:59.678Z,7.22
2022-08-05T08:09:02.476Z,6.72
2022-08-05T08:10:05.232Z,6.10
2022-08-05T08:11:08.902Z,7.63
2022-08-05T08:12:35.331Z,5.35
2022-08-05T08:13:49.331Z,6.60
2022-08-05T08:14:57.290Z,7.55
2022-08-05T08:16:49.648Z,8.25
2022-08-05T08:17:27.790Z,6.50
2022-08-05T08:18:29.694Z,5.85
2022-08-05T08:20:10.213Z,8.02
2022-08-05T08:21:03.095Z,7.32
2022-08-05T08:22:09.140Z,6.78
2022-08-05T08:23:59.714Z,6.05
2022-08-05T08:24:51.591Z,6.15
2022-08-05T08:25:59.961Z,8.00
2022-08-05T08:27:07.057Z,6.10
2022-08-05T08:28:18.390Z,5.80
2022-08-05T08:30:03.842Z,6.20
2022-08-05T08:30:52.369Z,5.90
2022-08-05T08:31:54.443Z,5.55
2022-08-05T08:32:56.183Z,5.80
2022-08-05T08:33:58.959Z,6.40
2022-08-05T08:35:01.033Z,5.85
2022-08-05T08:36:29.526Z,5.80
2022-08-05T08:37:28.033Z,5.25
2022-08-05T08:38:36.101Z,6.13
2022-08-05T08:39:49.256Z,6.60
2022-08-05T08:40:51.903Z,5.68
2022-08-05T08:41:59.863Z,5.20
2022-08-05T08:44:57.883Z,6.72
2022-08-05T08:45:23.002Z,4.53
2022-08-05T08:45:54.435Z,5.88
2022-08-05T08:46:57.072Z,5.05
2022-08-05T08:48:12.514Z,6.05
2022-08-05T08:50:22.252Z,5.00
2022-08-05T08:51:03.550Z,6.05
2022-08-05T08:52:16.967Z,6.88
2022-08-05T08:53:18.936Z,5.55
2022-08-05T08:54:21.252Z,6.38
2022-08-05T08:56:01.528Z,5.07
2022-08-05T08:56:51.102Z,6.80
2022-08-05T08:57:58.441Z,5.50
2022-08-05T08:59:07.069Z,7.05
2022-08-05T09:00:19.400Z,5.97
2022-08-05T09:01:21.483Z,5.90
2022-08-05T09:02:26.942Z,5.45
2022-08-05T09:03:40.718Z,5.53
2022-08-05T09:05:16.665Z,5.47
2022-08-05T09:06:11.130Z,5.80
2022-08-05T09:07:19.617Z,6.20
2022-08-05T09:08:31.062Z,6.15
2022-08-05T09:09:38.084Z,4.53
2022-08-05T09:10:42.046Z,5.07
2022-08-05T09:11:53.760Z,6.43
2022-08-05T09:13:04.528Z,5.57
2022-08-05T09:14:54.265Z,5.60
2022-08-05T09:15:30.432Z,5.78
2022-08-05T09:16:32.452Z,4.53
2022-08-05T09:17:42.899Z,6.38
2022-08-05T09:18:51.358Z,5.90
2022-08-05T09:20:02.351Z,5.55
2022-08-05T09:21:05.821Z,7.15
2022-08-05T09:22:23.456Z,5.97
2022-08-05T09:23:37.453Z,5.10
2022-08-05T09:25:01.141Z,5.10
2022-08-05T09:26:21.133Z,5.13
2022-08-05T09:28:03.758Z,5.57
2022-08-05T09:29:04.713Z,5.40
2022-08-05T09:30:07.305Z,5.32
2022-08-05T09:31:22.637Z,5.15
2022-08-05T09:32:50.261Z,3.90
2022-08-05T09:34:13.706Z,4.70
2022-08-05T09:35:26.632Z,5.07
2022-08-05T09:36:54.638Z,5.38
2022-08-05T09:38:18.485Z,5.88
2022-08-05T09:39:22.457Z,5.35
2022-08-05T09:40:39.245Z,4.68
2022-08-05T09:42:00.685Z,5.90
2022-08-05T09:43:08.403Z,6.10
2022-08-05T09:44:11.192Z,5.93
2022-08-05T09:46:05.036Z,6.22
2022-08-05T09:46:35.032Z,6.25
2022-08-05T09:47:55.661Z,4.82
2022-08-05T09:49:06.870Z,5.80
2022-08-05T09:50:10.117Z,6.03
2022-08-05T09:51:14.790Z,6.40
2022-08-05T09:52:26.382Z,5.93
2022-08-05T09:53:54.085Z,4.88
2022-08-05T09:55:55.062Z,5.57
2022-08-05T09:56:28.303Z,6.05
2022-08-05T09:57:35.222Z,6.28
2022-08-05T09:58:37.229Z,5.25
2022-08-05T09:59:47.942Z,4.78
2022-08-05T10:01:14.649Z,5.18
2022-08-05T10:02:34.480Z,6.50
2022-08-05T10:03:56.825Z,6.00
2022-08-05T10:05:09.788Z,5.85
2022-08-05T10:06:15.851Z,5.50
2022-08-05T10:07:20.883Z,6.30
2022-08-05T10:08:42.351Z,6.05
2022-08-05T10:10:15.264Z,6.13
2022-08-05T10:11:17.977Z,4.32
2022-08-05T10:12:33.936Z,5.55
2022-08-05T10:13:45.800Z,6.63
2022-08-05T10:14:49.979Z,7.72
2022-08-05T10:15:58.453Z,5.47
2022-08-05T10:17:37.168Z,7.47
2022-08-05T10:18:39.984Z,5.70
2022-08-05T10:20:03.689Z,6.60
2022-08-05T10:21:11.885Z,5.90
2022-08-05T10:22:30.175Z,7.10
2022-08-05T10:23:59.947Z,5.60
2022-08-05T10:25:01.429Z,6.07
2022-08-05T10:26:14.278Z,5.03
2022-08-05T10:27:16.881Z,5.57
2022-08-05T10:28:29.451Z,5.45
2022-08-05T10:30:06.335Z,6.15
2022-08-05T10:32:49.686Z,4.72
2022-08-05T10:32:54.653Z,6.38
2022-08-05T10:33:44.569Z,6.93
2022-08-05T10:34:46.594Z,6.50
2022-08-05T10:36:00.018Z,4.70
2022-08-05T10:37:02.481Z,6.55
2022-08-05T10:38:06.435Z,5.93
2022-08-05T10:39:24.859Z,5.55
2022-08-05T10:40:51.999Z,7.10
2022-08-05T10:42:18.827Z,4.72
2022-08-05T10:43:59.276Z,5.55
2022-08-05T10:45:09.631Z,7.78
2022-08-05T10:46:24.282Z,5.88
2022-08-05T10:47:33.194Z,5.60
2022-08-05T10:48:57.181Z,6.05
2022-08-05T10:50:31.629Z,5.90
2022-08-05T10:51:59.784Z,4.72
2022-08-05T10:53:02.357Z,6.07
2022-08-05T10:54:23.115Z,5.63
2022-08-05T10:55:27.715Z,5.30
2022-08-05T10:56:36.500Z,6.05
2022-08-05T10:57:41.596Z,5.85
2022-08-05T10:58:51.109Z,7.15
2022-08-05T11:00:18.249Z,5.38
2022-08-05T11:01:53.997Z,5.75
2022-08-05T11:03:24.776Z,6.15
2022-08-05T11:04:28.012Z,5.55
2022-08-05T11:05:36.098Z,4.57
2022-08-05T11:07:02.869Z,5.70
2022-08-05T11:08:27.637Z,6.03
2022-08-05T11:09:46.158Z,4.97
2022-08-05T11:10:50.044Z,5.68
2022-08-05T11:12:03.114Z,6.50
2022-08-05T11:13:06.721Z,5.82
2022-08-05T11:14:10.689Z,5.18
2022-08-05T11:15:21.292Z,4.88
2022-08-05T11:16:47.363Z,6.43
2022-08-05T11:17:59.385Z,4.65
2022-08-05T11:20:16.613Z,4.57
2022-08-05T11:20:51.339Z,3.90
2022-08-05T11:21:55.041Z,7.22
2022-08-05T11:23:08.768Z,5.53
2022-08-05T11:24:29.764Z,5.35
2022-08-05T11:26:04.585Z,5.28
2022-08-05T11:27:45.818Z,4.80
2022-08-05T11:28:54.858Z,4.93
2022-08-05T11:30:00.515Z,4.30
2022-08-05T11:31:02.133Z,4.80
2022-08-05T11:32:26.379Z,5.70
2022-08-05T11:33:46.273Z,6.13
2022-08-05T11:34:53.884Z,6.07
2022-08-05T11:36:07.565Z,5.88
2022-08-05T11:38:28.730Z,6.65
2022-08-05T11:38:54.432Z,5.18
2022-08-05T11:40:02.726Z,5.95
2022-08-05T11:41:34.735Z,5.63
2022-08-05T11:42:28.736Z,5.85
2022-08-05T11:43:58.484Z,5.63
2022-08-05T11:45:01.301Z,5.35
2022-08-05T11:46:16.045Z,5.60
2022-08-05T11:47:49.059Z,5.00
2022-08-05T11:48:48.977Z,4.68
2022-08-05T11:50:08.294Z,5.15
2022-08-05T11:51:10.885Z,5.95
2022-08-05T11:52:12.729Z,5.88
2022-08-05T11:53:15.463Z,5.80
2022-08-05T11:54:33.355Z,6.00
2022-08-05T11:55:36.220Z,5.22
2022-08-05T11:56:50.277Z,5.88
2022-08-05T11:58:09.587Z,5.70
2022-08-05T11:59:23.093Z,5.97
2022-08-05T12:00:30.435Z,5.53
2022-08-05T12:01:32.357Z,4.97
2022-08-05T12:02:36.225Z,5.50
2022-08-05T12:03:56.125Z,5.40
2022-08-05T12:04:59.862Z,5.15
2022-08-05T12:06:10.225Z,5.45
2022-08-05T12:07:14.748Z,5.35
2022-08-05T12:08:18.299Z,5.03
2022-08-05T12:09:38.690Z,6.07
2022-08-05T12:10:51.754Z,5.28
2022-08-05T12:11:54.894Z,5.38
2022-08-05T12:13:14.618Z,5.07
2022-08-05T12:14:18.889Z,5.13
2022-08-05T12:15:34.626Z,4.68
2022-08-05T12:16:45.600Z,6.68
2022-08-05T12:18:02.738Z,5.75
2022-08-05T12:19:08.163Z,5.15
2022-08-05T12:20:26.159Z,6.60
2022-08-05T12:21:34.248Z,6.15
2022-08-05T12:22:40.990Z,7.07
2022-08-05T12:24:07.063Z,7.78
2022-08-05T12:25:09.456Z,4.47
2022-08-05T12:26:16.057Z,6.55
2022-08-05T12:27:25.461Z,5.85
2022-08-05T12:28:38.075Z,5.10
2022-08-05T12:29:39.799Z,6.72
2022-08-05T12:30:45.815Z,5.18
2022-08-05T12:31:57.181Z,8.27
2022-08-05T12:33:07.310Z,6.03
2022-08-05T12:34:28.267Z,7.35
2022-08-05T12:35:36.906Z,6.45
2022-08-05T12:36:42.871Z,5.93
2022-08-05T12:37:46.777Z,5.15
2022-08-05T12:38:50.396Z,8.50
2022-08-05T12:39:53.920Z,8.77
2022-08-05T12:40:57.217Z,5.53
2022-08-05T12:41:59.742Z,8.45
2022-08-05T12:43:01.481Z,7.93
2022-08-05T12:44:06.528Z,6.18
2022-08-05T12:45:14.596Z,5.97
2022-08-05T12:46:32.599Z,8.15
2022-08-05T12:47:34.752Z,6.40
2022-08-05T12:48:39.975Z,5.22
2022-08-05T12:50:02.329Z,7.07
2022-08-05T12:51:21.869Z,6.53
2022-08-05T12:52:42.348Z,6.35
2022-08-05T12:53:47.456Z,5.18
2022-08-05T12:54:57.677Z,7.57
2022-08-05T12:56:00.755Z,4.28
2022-08-05T12:57:09.303Z,5.57
2022-08-05T12:58:51.068Z,4.20
2022-08-05T13:01:57.042Z,5.35
2022-08-05T13:02:00.105Z,7.47
2022-08-05T13:02:39.898Z,4.95
2022-08-05T13:03:43.306Z,7.15
2022-08-05T13:04:52.629Z,5.65
2022-08-05T13:05:56.668Z,7.15
2022-08-05T13:07:00.497Z,5.75
2022-08-05T13:08:05.046Z,6.47
2022-08-05T13:09:12.734Z,5.93
2022-08-05T13:10:19.838Z,4.53
2022-08-05T13:12:01.074Z,5.55
2022-08-05T13:12:51.006Z,7.80
2022-08-05T13:14:06.089Z,7.50
2022-08-05T13:15:18.024Z,5.22
2022-08-05T13:16:28.017Z,6.15
2022-08-05T13:17:41.865Z,5.22
2022-08-05T13:18:51.599Z,9.02
2022-08-05T13:20:02.257Z,7.43
2022-08-05T13:21:04.699Z,4.95
2022-08-05T13:22:06.420Z,6.05
2022-08-05T13:23:09.070Z,5.78
2022-08-05T13:24:11.061Z,6.38
2022-08-05T13:25:19.369Z,5.30
2022-08-05T13:26:30.196Z,6.05
2022-08-05T13:27:39.419Z,7.95
2022-08-05T13:28:44.029Z,5.43
2022-08-05T13:30:31.428Z,6.43
2022-08-05T13:31:13.864Z,5.07
2022-08-05T13:32:21.571Z,4.35
2022-08-05T13:34:22.726Z,5.30
2022-08-05T13:34:56.642Z,5.93
2022-08-05T13:36:02.011Z,7.65
2022-08-05T13:37:07.142Z,6.47
2022-08-05T13:38:09.068Z,4.65
2022-08-05T13:40:14.008Z,6.40
2022-08-05T13:40:50.040Z,5.65
2022-08-05T13:41:53.939Z,3.92
2022-08-05T13:42:57.490Z,5.53
2022-08-05T13:43:59.406Z,5.50
2022-08-05T13:45:01.783Z,5.47
2022-08-05T13:46:03.482Z,5.85
2022-08-05T13:47:09.023Z,7.55
2022-08-05T13:48:57.268Z,5.50
2022-08-05T13:49:35.303Z,4.72
2022-08-05T13:50:37.271Z,6.15
2022-08-05T13:51:46.362Z,5.65
2022-08-05T13:52:49.867Z,5.60
2022-08-05T13:53:51.783Z,4.35
2022-08-05T13:55:01.131Z,6.05
2022-08-05T13:56:03.305Z,5.00
2022-08-05T13:57:05.227Z,5.22
2022-08-05T13:58:11.036Z,4.93
2022-08-05T13:59:20.349Z,4.15
2022-08-05T14:00:26.882Z,4.63
2022-08-05T14:01:44.155Z,5.55
2022-08-05T14:02:48.459Z,5.55
2022-08-05T14:04:14.004Z,4.78
2022-08-05T14:05:19.444Z,6.07
2022-08-05T14:06:31.424Z,6.72
2022-08-05T14:07:59.794Z,4.40
2022-08-05T14:09:01.314Z,5.55
2022-08-05T14:10:03.778Z,3.85
2022-08-05T14:11:20.609Z,5.30
2022-08-05T14:12:32.177Z,4.55
2022-08-05T14:13:34.569Z,5.80
2022-08-05T14:14:36.298Z,5.13
2022-08-05T14:16:09.179Z,3.90
2022-08-05T14:17:00.117Z,6.25
2022-08-05T14:18:02.981Z,4.18
2022-08-05T14:19:09.460Z,5.55
2022-08-05T14:20:18.503Z,5.28
2022-08-05T14:22:07.203Z,4.80
2022-08-05T14:22:50.112Z,6.97
2022-08-05T14:23:52.198Z,5.35
2022-08-05T14:24:55.346Z,5.25
2022-08-05T14:25:58.412Z,4.55
2022-08-05T14:27:17.725Z,5.18
2022-08-05T14:28:26.748Z,5.00
2022-08-05T14:29:29.352Z,5.70
2022-08-05T14:30:33.081Z,5.72
2022-08-05T14:32:02.858Z,5.35
2022-08-05T14:32:57.122Z,5.38
2022-08-05T14:34:00.849Z,5.10
2022-08-05T14:35:04.148Z,7.40
2022-08-05T14:36:12.502Z,5.75
2022-08-05T14:37:14.223Z,4.95
2022-08-05T14:38:31.593Z,6.45
2022-08-05T14:39:50.246Z,5.90
2022-08-05T14:40:56.979Z,5.72
2022-08-05T14:42:19.330Z,4.85
2022-08-05T14:43:21.106Z,5.15
2022-08-05T14:44:43.120Z,5.25
2022-08-05T14:45:44.816Z,6.05
2022-08-05T14:46:46.528Z,4.82
2022-08-05T14:48:03.183Z,5.78
2022-08-05T14:49:08.150Z,5.80
2022-08-05T14:50:17.783Z,7.28
2022-08-05T14:51:21.196Z,5.80
2022-08-05T14:52:50.496Z,4.65
2022-08-05T14:53:45.548Z,5.32
2022-08-05T14:55:08.521Z,6.03
2022-08-05T14:56:16.311Z,5.97
2022-08-05T14:57:24.641Z,5.53
2022-08-05T14:58:35.702Z,5.78
2022-08-05T14:59:37.615Z,6.80
2022-08-05T15:00:59.612Z,5.50
2022-08-05T15:02:03.073Z,5.70
2022-08-05T15:03:09.627Z,5.80
2022-08-05T15:04:11.903Z,7.05
2022-08-05T15:05:14.462Z,6.05
2022-08-05T15:06:16.250Z,5.63
2022-08-05T15:08:09.169Z,4.85
2022-08-05T15:08:58.133Z,4.32
2022-08-05T15:10:01.589Z,5.13
2022-08-05T15:11:08.060Z,4.60
2022-08-05T15:12:11.727Z,6.93
2022-08-05T15:13:18.998Z,6.18
2022-08-05T15:14:34.921Z,6.30
2022-08-05T15:15:55.523Z,4.20
2022-08-05T15:16:59.185Z,5.35
2022-08-05T15:18:03.914Z,5.95
2022-08-05T15:19:07.602Z,6.90
2022-08-05T15:20:25.358Z,5.13
2022-08-05T15:21:30.473Z,6.22
2022-08-05T15:22:32.334Z,8.50
2022-08-05T15:23:34.056Z,6.53
2022-08-05T15:24:35.897Z,8.95
2022-08-05T15:25:52.646Z,7.35
2022-08-05T15:26:57.522Z,6.72
2022-08-05T15:28:01.032Z,6.22
2022-08-05T15:29:02.791Z,7.88
2022-08-05T15:30:05.158Z,6.15
2022-08-05T15:31:07.953Z,7.88
2022-08-05T15:32:12.412Z,9.10
2022-08-05T15:34:04.045Z,11.70
2022-08-05T15:34:41.841Z,9.30
2022-08-05T15:35:45.157Z,7.97
2022-08-05T15:36:51.898Z,6.75
2022-08-05T15:38:32.532Z,8.18